sensor_id;sensor_type;location;lat;lon;timestamp;P1;durP1;ratioP1;P2;durP2;ratioP2
60726;SDS011;46577;49.004;12.120;2023-03-11T00:02:13;0.90;;;0.90;;
60726;SDS011;46577;49.004;12.120;2023-03-11T00:04:39;1.20;;;1.00;;
60726;SDS011;46577;49.004;12.120;2023-03-11T00:07:05;1.03;;;0.93;;
60726;SDS011;46577;49.004;12.120;2023-03-11T00:09:32;1.80;;;1.00;;
60726;SDS011;46577;49.004;12.120;2023-03-11T00:11:58;0.93;;;0.93;;
60726;SDS011;46577;49.004;12.120;2023-03-11T00:14:24;0.80;;;0.80;;
60726;SDS011;46577;49.004;12.120;2023-03-11T00:16:49;0.60;;;0.60;;
60726;SDS011;46577;49.004;12.120;2023-03-11T00:19:15;0.80;;;0.80;;
60726;SDS011;46577;49.004;12.120;2023-03-11T00:21:41;1.90;;;0.90;;
60726;SDS011;46577;49.004;12.120;2023-03-11T00:24:06;1.70;;;0.90;;
60726;SDS011;46577;49.004;12.120;2023-03-11T00:26:32;1.10;;;1.10;;
60726;SDS011;46577;49.004;12.120;2023-03-11T00:28:58;1.17;;;1.00;;
60726;SDS011;46577;49.004;12.120;2023-03-11T00:31:23;0.90;;;0.90;;
60726;SDS011;46577;49.004;12.120;2023-03-11T00:33:51;0.90;;;0.90;;
60726;SDS011;46577;49.004;12.120;2023-03-11T00:36:28;0.97;;;0.90;;
60726;SDS011;46577;49.004;12.120;2023-03-11T00:38:56;1.40;;;0.90;;
60726;SDS011;46577;49.004;12.120;2023-03-11T00:41:22;0.97;;;0.90;;
60726;SDS011;46577;49.004;12.120;2023-03-11T00:43:48;1.20;;;1.00;;
60726;SDS011;46577;49.004;12.120;2023-03-11T00:46:14;1.13;;;1.00;;
60726;SDS011;46577;49.004;12.120;2023-03-11T00:48:39;2.10;;;0.60;;
60726;SDS011;46577;49.004;12.120;2023-03-11T00:51:05;2.10;;;0.70;;
60726;SDS011;46577;49.004;12.120;2023-03-11T00:53:32;1.10;;;1.07;;
60726;SDS011;46577;49.004;12.120;2023-03-11T00:55:57;0.67;;;0.67;;
60726;SDS011;46577;49.004;12.120;2023-03-11T00:58:24;2.00;;;0.93;;
60726;SDS011;46577;49.004;12.120;2023-03-11T01:00:52;0.90;;;0.90;;
60726;SDS011;46577;49.004;12.120;2023-03-11T01:03:18;0.80;;;0.70;;
60726;SDS011;46577;49.004;12.120;2023-03-11T01:05:44;0.70;;;0.70;;
60726;SDS011;46577;49.004;12.120;2023-03-11T01:08:09;0.70;;;0.70;;
60726;SDS011;46577;49.004;12.120;2023-03-11T01:10:35;0.60;;;0.60;;
60726;SDS011;46577;49.004;12.120;2023-03-11T01:13:01;1.00;;;0.60;;
60726;SDS011;46577;49.004;12.120;2023-03-11T01:15:31;1.70;;;0.80;;
60726;SDS011;46577;49.004;12.120;2023-03-11T01:17:59;0.70;;;0.70;;
60726;SDS011;46577;49.004;12.120;2023-03-11T01:20:24;2.20;;;0.90;;
60726;SDS011;46577;49.004;12.120;2023-03-11T01:22:50;0.97;;;0.70;;
60726;SDS011;46577;49.004;12.120;2023-03-11T01:25:17;0.80;;;0.80;;
60726;SDS011;46577;49.004;12.120;2023-03-11T01:27:44;1.70;;;0.60;;
60726;SDS011;46577;49.004;12.120;2023-03-11T01:30:12;0.70;;;0.70;;
60726;SDS011;46577;49.004;12.120;2023-03-11T01:32:40;1.00;;;0.90;;
60726;SDS011;46577;49.004;12.120;2023-03-11T01:35:06;0.50;;;0.50;;
60726;SDS011;46577;49.004;12.120;2023-03-11T01:37:34;3.80;;;0.70;;
60726;SDS011;46577;49.004;12.120;2023-03-11T01:39:59;0.70;;;0.60;;
60726;SDS011;46577;49.004;12.120;2023-03-11T01:42:25;1.03;;;0.87;;
60726;SDS011;46577;49.004;12.120;2023-03-11T01:44:50;0.63;;;0.63;;
60726;SDS011;46577;49.004;12.120;2023-03-11T01:47:31;3.43;;;1.10;;
60726;SDS011;46577;49.004;12.120;2023-03-11T01:49:59;0.80;;;0.80;;
60726;SDS011;46577;49.004;12.120;2023-03-11T01:52:26;0.70;;;0.70;;
60726;SDS011;46577;49.004;12.120;2023-03-11T01:54:52;0.80;;;0.80;;
60726;SDS011;46577;49.004;12.120;2023-03-11T01:57:17;0.70;;;0.70;;
60726;SDS011;46577;49.004;12.120;2023-03-11T01:59:49;1.07;;;1.00;;
60726;SDS011;46577;49.004;12.120;2023-03-11T02:04:54;1.50;;;0.90;;
60726;SDS011;46577;49.004;12.120;2023-03-11T02:07:20;0.73;;;0.70;;
60726;SDS011;46577;49.004;12.120;2023-03-11T02:09:46;0.73;;;0.73;;
60726;SDS011;46577;49.004;12.120;2023-03-11T02:12:12;0.87;;;0.87;;
60726;SDS011;46577;49.004;12.120;2023-03-11T02:14:39;0.93;;;0.80;;
60726;SDS011;46577;49.004;12.120;2023-03-11T02:17:08;1.33;;;0.90;;
60726;SDS011;46577;49.004;12.120;2023-03-11T02:22:21;1.50;;;1.37;;
60726;SDS011;46577;49.004;12.120;2023-03-11T02:27:23;0.77;;;0.77;;
60726;SDS011;46577;49.004;12.120;2023-03-11T02:29:52;0.63;;;0.63;;
60726;SDS011;46577;49.004;12.120;2023-03-11T02:32:20;0.80;;;0.80;;
60726;SDS011;46577;49.004;12.120;2023-03-11T02:34:46;2.03;;;0.90;;
60726;SDS011;46577;49.004;12.120;2023-03-11T02:37:13;0.60;;;0.60;;
60726;SDS011;46577;49.004;12.120;2023-03-11T02:39:43;0.87;;;0.87;;
60726;SDS011;46577;49.004;12.120;2023-03-11T02:42:30;0.90;;;0.90;;
60726;SDS011;46577;49.004;12.120;2023-03-11T02:45:09;0.60;;;0.60;;
60726;SDS011;46577;49.004;12.120;2023-03-11T02:47:37;1.33;;;0.93;;
60726;SDS011;46577;49.004;12.120;2023-03-11T02:50:05;1.90;;;1.07;;
60726;SDS011;46577;49.004;12.120;2023-03-11T02:52:32;0.90;;;0.90;;
60726;SDS011;46577;49.004;12.120;2023-03-11T02:54:59;1.20;;;1.10;;
60726;SDS011;46577;49.004;12.120;2023-03-11T02:57:25;1.20;;;1.10;;
60726;SDS011;46577;49.004;12.120;2023-03-11T02:59:51;1.00;;;0.90;;
60726;SDS011;46577;49.004;12.120;2023-03-11T03:02:16;3.77;;;1.13;;
60726;SDS011;46577;49.004;12.120;2023-03-11T03:04:42;1.10;;;1.03;;
60726;SDS011;46577;49.004;12.120;2023-03-11T03:07:08;3.47;;;1.33;;
60726;SDS011;46577;49.004;12.120;2023-03-11T03:09:34;2.10;;;1.10;;
60726;SDS011;46577;49.004;12.120;2023-03-11T03:12:01;0.80;;;0.77;;
60726;SDS011;46577;49.004;12.120;2023-03-11T03:14:27;1.10;;;0.90;;
60726;SDS011;46577;49.004;12.120;2023-03-11T03:16:53;1.27;;;1.17;;
60726;SDS011;46577;49.004;12.120;2023-03-11T03:19:19;0.90;;;0.90;;
60726;SDS011;46577;49.004;12.120;2023-03-11T03:21:44;0.90;;;0.90;;
60726;SDS011;46577;49.004;12.120;2023-03-11T03:24:10;1.00;;;1.00;;
60726;SDS011;46577;49.004;12.120;2023-03-11T03:26:36;1.03;;;0.93;;
60726;SDS011;46577;49.004;12.120;2023-03-11T03:29:02;1.00;;;1.00;;
60726;SDS011;46577;49.004;12.120;2023-03-11T03:31:28;1.20;;;0.73;;
60726;SDS011;46577;49.004;12.120;2023-03-11T03:33:53;1.67;;;1.00;;
60726;SDS011;46577;49.004;12.120;2023-03-11T03:36:19;1.40;;;1.03;;
60726;SDS011;46577;49.004;12.120;2023-03-11T03:38:44;0.70;;;0.70;;
60726;SDS011;46577;49.004;12.120;2023-03-11T03:41:12;1.00;;;0.90;;
60726;SDS011;46577;49.004;12.120;2023-03-11T03:43:39;0.90;;;0.90;;
60726;SDS011;46577;49.004;12.120;2023-03-11T03:46:05;0.70;;;0.70;;
60726;SDS011;46577;49.004;12.120;2023-03-11T03:48:30;1.97;;;0.90;;
60726;SDS011;46577;49.004;12.120;2023-03-11T03:51:00;9.83;;;0.80;;
60726;SDS011;46577;49.004;12.120;2023-03-11T03:53:27;0.80;;;0.80;;
60726;SDS011;46577;49.004;12.120;2023-03-11T03:55:53;1.00;;;0.90;;
60726;SDS011;46577;49.004;12.120;2023-03-11T03:58:19;0.90;;;0.90;;
60726;SDS011;46577;49.004;12.120;2023-03-11T04:00:44;0.63;;;0.60;;
60726;SDS011;46577;49.004;12.120;2023-03-11T04:03:10;0.87;;;0.80;;
60726;SDS011;46577;49.004;12.120;2023-03-11T04:05:35;0.80;;;0.73;;
60726;SDS011;46577;49.004;12.120;2023-03-11T04:08:01;0.60;;;0.60;;
60726;SDS011;46577;49.004;12.120;2023-03-11T04:10:26;0.73;;;0.73;;
60726;SDS011;46577;49.004;12.120;2023-03-11T04:12:52;4.93;;;0.90;;
60726;SDS011;46577;49.004;12.120;2023-03-11T04:15:18;0.80;;;0.80;;
60726;SDS011;46577;49.004;12.120;2023-03-11T04:17:43;0.80;;;0.80;;
60726;SDS011;46577;49.004;12.120;2023-03-11T04:20:09;1.87;;;0.97;;
60726;SDS011;46577;49.004;12.120;2023-03-11T04:22:35;1.80;;;0.87;;
60726;SDS011;46577;49.004;12.120;2023-03-11T04:25:01;1.33;;;1.00;;
60726;SDS011;46577;49.004;12.120;2023-03-11T04:27:27;1.17;;;0.60;;
60726;SDS011;46577;49.004;12.120;2023-03-11T04:29:52;0.97;;;0.80;;
60726;SDS011;46577;49.004;12.120;2023-03-11T04:32:18;1.33;;;0.97;;
60726;SDS011;46577;49.004;12.120;2023-03-11T04:34:43;0.90;;;0.90;;
60726;SDS011;46577;49.004;12.120;2023-03-11T04:37:09;0.80;;;0.70;;
60726;SDS011;46577;49.004;12.120;2023-03-11T04:39:35;1.00;;;0.90;;
60726;SDS011;46577;49.004;12.120;2023-03-11T04:42:00;1.83;;;0.80;;
60726;SDS011;46577;49.004;12.120;2023-03-11T04:44:26;1.40;;;1.20;;
60726;SDS011;46577;49.004;12.120;2023-03-11T04:46:51;0.60;;;0.60;;
60726;SDS011;46577;49.004;12.120;2023-03-11T04:49:17;1.97;;;1.20;;
60726;SDS011;46577;49.004;12.120;2023-03-11T04:51:43;0.90;;;0.90;;
60726;SDS011;46577;49.004;12.120;2023-03-11T04:54:09;0.80;;;0.80;;
60726;SDS011;46577;49.004;12.120;2023-03-11T04:56:34;1.10;;;1.00;;
60726;SDS011;46577;49.004;12.120;2023-03-11T04:59:00;1.77;;;1.10;;
60726;SDS011;46577;49.004;12.120;2023-03-11T05:01:26;1.33;;;0.80;;
60726;SDS011;46577;49.004;12.120;2023-03-11T05:03:51;1.43;;;1.00;;
60726;SDS011;46577;49.004;12.120;2023-03-11T05:06:17;1.03;;;0.80;;
60726;SDS011;46577;49.004;12.120;2023-03-11T05:08:42;0.83;;;0.83;;
60726;SDS011;46577;49.004;12.120;2023-03-11T05:11:08;1.33;;;0.87;;
60726;SDS011;46577;49.004;12.120;2023-03-11T05:13:34;1.20;;;1.00;;
60726;SDS011;46577;49.004;12.120;2023-03-11T05:15:59;1.30;;;1.00;;
60726;SDS011;46577;49.004;12.120;2023-03-11T05:18:25;1.57;;;0.90;;
60726;SDS011;46577;49.004;12.120;2023-03-11T05:20:51;1.00;;;0.90;;
60726;SDS011;46577;49.004;12.120;2023-03-11T05:23:17;1.57;;;1.13;;
60726;SDS011;46577;49.004;12.120;2023-03-11T05:25:43;3.47;;;1.00;;
60726;SDS011;46577;49.004;12.120;2023-03-11T05:28:08;0.70;;;0.67;;
60726;SDS011;46577;49.004;12.120;2023-03-11T05:30:34;2.13;;;0.93;;
60726;SDS011;46577;49.004;12.120;2023-03-11T05:33:00;1.13;;;0.90;;
60726;SDS011;46577;49.004;12.120;2023-03-11T05:35:26;0.80;;;0.80;;
60726;SDS011;46577;49.004;12.120;2023-03-11T05:37:51;0.80;;;0.80;;
60726;SDS011;46577;49.004;12.120;2023-03-11T05:40:18;0.70;;;0.70;;
60726;SDS011;46577;49.004;12.120;2023-03-11T05:42:44;0.80;;;0.70;;
60726;SDS011;46577;49.004;12.120;2023-03-11T05:45:10;1.57;;;1.03;;
60726;SDS011;46577;49.004;12.120;2023-03-11T05:47:36;0.90;;;0.90;;
60726;SDS011;46577;49.004;12.120;2023-03-11T05:50:02;2.87;;;1.00;;
60726;SDS011;46577;49.004;12.120;2023-03-11T05:52:28;17.03;;;1.10;;
60726;SDS011;46577;49.004;12.120;2023-03-11T05:54:56;0.73;;;0.73;;
60726;SDS011;46577;49.004;12.120;2023-03-11T05:57:22;1.70;;;1.20;;
60726;SDS011;46577;49.004;12.120;2023-03-11T05:59:47;4.67;;;1.63;;
60726;SDS011;46577;49.004;12.120;2023-03-11T06:02:13;4.10;;;1.00;;
60726;SDS011;46577;49.004;12.120;2023-03-11T06:04:38;1.33;;;0.90;;
60726;SDS011;46577;49.004;12.120;2023-03-11T06:07:04;5.80;;;0.93;;
60726;SDS011;46577;49.004;12.120;2023-03-11T06:09:30;1.17;;;1.00;;
60726;SDS011;46577;49.004;12.120;2023-03-11T06:11:55;1.57;;;0.87;;
60726;SDS011;46577;49.004;12.120;2023-03-11T06:14:21;1.10;;;1.00;;
60726;SDS011;46577;49.004;12.120;2023-03-11T06:16:46;3.30;;;0.80;;
60726;SDS011;46577;49.004;12.120;2023-03-11T06:19:12;1.53;;;1.00;;
60726;SDS011;46577;49.004;12.120;2023-03-11T06:21:38;1.47;;;0.90;;
60726;SDS011;46577;49.004;12.120;2023-03-11T06:24:03;1.60;;;0.80;;
60726;SDS011;46577;49.004;12.120;2023-03-11T06:26:29;1.30;;;0.97;;
60726;SDS011;46577;49.004;12.120;2023-03-11T06:28:55;0.90;;;0.90;;
60726;SDS011;46577;49.004;12.120;2023-03-11T06:31:22;3.03;;;0.87;;
60726;SDS011;46577;49.004;12.120;2023-03-11T06:33:52;1.40;;;1.03;;
60726;SDS011;46577;49.004;12.120;2023-03-11T06:36:20;4.83;;;1.40;;
60726;SDS011;46577;49.004;12.120;2023-03-11T06:38:47;4.00;;;1.40;;
60726;SDS011;46577;49.004;12.120;2023-03-11T06:41:16;0.83;;;0.80;;
60726;SDS011;46577;49.004;12.120;2023-03-11T06:43:42;1.60;;;0.80;;
60726;SDS011;46577;49.004;12.120;2023-03-11T06:46:11;0.90;;;0.90;;
60726;SDS011;46577;49.004;12.120;2023-03-11T06:48:40;6.33;;;1.10;;
60726;SDS011;46577;49.004;12.120;2023-03-11T06:51:06;2.63;;;1.07;;
60726;SDS011;46577;49.004;12.120;2023-03-11T06:53:31;2.93;;;1.10;;
60726;SDS011;46577;49.004;12.120;2023-03-11T06:56:01;3.47;;;1.03;;
60726;SDS011;46577;49.004;12.120;2023-03-11T06:58:29;0.93;;;0.90;;
60726;SDS011;46577;49.004;12.120;2023-03-11T07:00:58;3.87;;;1.40;;
60726;SDS011;46577;49.004;12.120;2023-03-11T07:03:26;1.03;;;0.87;;
60726;SDS011;46577;49.004;12.120;2023-03-11T07:05:51;3.80;;;1.10;;
60726;SDS011;46577;49.004;12.120;2023-03-11T07:08:17;5.43;;;1.33;;
60726;SDS011;46577;49.004;12.120;2023-03-11T07:10:42;1.23;;;1.17;;
60726;SDS011;46577;49.004;12.120;2023-03-11T07:13:08;1.80;;;1.10;;
60726;SDS011;46577;49.004;12.120;2023-03-11T07:15:34;6.53;;;1.37;;
60726;SDS011;46577;49.004;12.120;2023-03-11T07:17:59;1.27;;;1.13;;
60726;SDS011;46577;49.004;12.120;2023-03-11T07:20:25;3.20;;;1.43;;
60726;SDS011;46577;49.004;12.120;2023-03-11T07:22:51;3.77;;;1.37;;
60726;SDS011;46577;49.004;12.120;2023-03-11T07:25:17;1.57;;;1.10;;
60726;SDS011;46577;49.004;12.120;2023-03-11T07:27:43;2.93;;;1.20;;
60726;SDS011;46577;49.004;12.120;2023-03-11T07:30:08;1.73;;;1.27;;
60726;SDS011;46577;49.004;12.120;2023-03-11T07:32:35;1.93;;;1.20;;
60726;SDS011;46577;49.004;12.120;2023-03-11T07:35:00;3.67;;;1.23;;
60726;SDS011;46577;49.004;12.120;2023-03-11T07:37:26;2.17;;;1.30;;
60726;SDS011;46577;49.004;12.120;2023-03-11T07:39:51;1.07;;;0.80;;
60726;SDS011;46577;49.004;12.120;2023-03-11T07:42:17;4.00;;;1.10;;
60726;SDS011;46577;49.004;12.120;2023-03-11T07:44:42;4.97;;;1.30;;
60726;SDS011;46577;49.004;12.120;2023-03-11T07:47:08;3.07;;;1.10;;
60726;SDS011;46577;49.004;12.120;2023-03-11T07:49:34;3.27;;;1.20;;
60726;SDS011;46577;49.004;12.120;2023-03-11T07:52:00;1.37;;;1.00;;
60726;SDS011;46577;49.004;12.120;2023-03-11T07:54:25;2.03;;;1.10;;
60726;SDS011;46577;49.004;12.120;2023-03-11T07:56:51;1.63;;;0.93;;
60726;SDS011;46577;49.004;12.120;2023-03-11T07:59:17;3.47;;;1.00;;
60726;SDS011;46577;49.004;12.120;2023-03-11T08:01:42;2.30;;;1.23;;
60726;SDS011;46577;49.004;12.120;2023-03-11T08:04:11;2.00;;;1.30;;
60726;SDS011;46577;49.004;12.120;2023-03-11T08:06:40;1.13;;;1.00;;
60726;SDS011;46577;49.004;12.120;2023-03-11T08:09:07;2.10;;;1.03;;
60726;SDS011;46577;49.004;12.120;2023-03-11T08:11:33;9.33;;;1.30;;
60726;SDS011;46577;49.004;12.120;2023-03-11T08:14:00;2.13;;;1.10;;
60726;SDS011;46577;49.004;12.120;2023-03-11T08:16:26;1.47;;;1.07;;
60726;SDS011;46577;49.004;12.120;2023-03-11T08:18:52;1.77;;;1.33;;
60726;SDS011;46577;49.004;12.120;2023-03-11T08:21:19;2.20;;;1.00;;
60726;SDS011;46577;49.004;12.120;2023-03-11T08:23:46;1.83;;;1.07;;
60726;SDS011;46577;49.004;12.120;2023-03-11T08:26:14;2.00;;;1.10;;
60726;SDS011;46577;49.004;12.120;2023-03-11T08:28:42;0.90;;;0.90;;
60726;SDS011;46577;49.004;12.120;2023-03-11T08:31:12;0.97;;;0.87;;
60726;SDS011;46577;49.004;12.120;2023-03-11T08:33:39;3.13;;;1.30;;
60726;SDS011;46577;49.004;12.120;2023-03-11T08:36:05;1.10;;;1.00;;
60726;SDS011;46577;49.004;12.120;2023-03-11T08:38:31;3.70;;;1.27;;
60726;SDS011;46577;49.004;12.120;2023-03-11T08:40:57;4.17;;;1.50;;
60726;SDS011;46577;49.004;12.120;2023-03-11T08:43:22;1.40;;;1.10;;
60726;SDS011;46577;49.004;12.120;2023-03-11T08:45:48;1.90;;;1.00;;
60726;SDS011;46577;49.004;12.120;2023-03-11T08:48:14;2.33;;;1.20;;
60726;SDS011;46577;49.004;12.120;2023-03-11T08:50:40;3.87;;;1.43;;
60726;SDS011;46577;49.004;12.120;2023-03-11T08:53:06;2.10;;;1.30;;
60726;SDS011;46577;49.004;12.120;2023-03-11T08:55:32;3.17;;;1.10;;
60726;SDS011;46577;49.004;12.120;2023-03-11T08:57:58;2.00;;;1.07;;
60726;SDS011;46577;49.004;12.120;2023-03-11T09:00:24;3.50;;;1.27;;
60726;SDS011;46577;49.004;12.120;2023-03-11T09:02:49;1.50;;;0.80;;
60726;SDS011;46577;49.004;12.120;2023-03-11T09:05:15;1.30;;;1.20;;
60726;SDS011;46577;49.004;12.120;2023-03-11T09:07:41;2.80;;;1.00;;
60726;SDS011;46577;49.004;12.120;2023-03-11T09:10:06;0.93;;;0.83;;
60726;SDS011;46577;49.004;12.120;2023-03-11T09:12:32;1.93;;;1.20;;
60726;SDS011;46577;49.004;12.120;2023-03-11T09:14:58;2.60;;;1.50;;
60726;SDS011;46577;49.004;12.120;2023-03-11T09:17:24;2.63;;;1.40;;
60726;SDS011;46577;49.004;12.120;2023-03-11T09:19:49;1.50;;;1.17;;
60726;SDS011;46577;49.004;12.120;2023-03-11T09:22:15;1.47;;;1.10;;
60726;SDS011;46577;49.004;12.120;2023-03-11T09:24:41;1.13;;;1.03;;
60726;SDS011;46577;49.004;12.120;2023-03-11T09:27:06;2.20;;;1.10;;
60726;SDS011;46577;49.004;12.120;2023-03-11T09:29:32;2.77;;;1.40;;
60726;SDS011;46577;49.004;12.120;2023-03-11T09:31:58;1.10;;;1.00;;
60726;SDS011;46577;49.004;12.120;2023-03-11T09:34:23;2.10;;;0.87;;
60726;SDS011;46577;49.004;12.120;2023-03-11T09:36:49;1.90;;;0.93;;
60726;SDS011;46577;49.004;12.120;2023-03-11T09:39:14;1.03;;;0.77;;
60726;SDS011;46577;49.004;12.120;2023-03-11T09:41:53;2.03;;;0.60;;
60726;SDS011;46577;49.004;12.120;2023-03-11T09:45:39;3.27;;;1.13;;
60726;SDS011;46577;49.004;12.120;2023-03-11T09:55:44;2.10;;;0.83;;
60726;SDS011;46577;49.004;12.120;2023-03-11T09:58:14;0.97;;;0.77;;
60726;SDS011;46577;49.004;12.120;2023-03-11T10:00:46;1.60;;;1.10;;
60726;SDS011;46577;49.004;12.120;2023-03-11T10:03:16;0.87;;;0.80;;
60726;SDS011;46577;49.004;12.120;2023-03-11T10:06:06;0.83;;;0.70;;
60726;SDS011;46577;49.004;12.120;2023-03-11T10:08:47;0.70;;;0.70;;
60726;SDS011;46577;49.004;12.120;2023-03-11T10:14:27;0.50;;;0.50;;
60726;SDS011;46577;49.004;12.120;2023-03-11T10:25:15;0.93;;;0.80;;
60726;SDS011;46577;49.004;12.120;2023-03-11T10:30:22;2.07;;;1.00;;
60726;SDS011;46577;49.004;12.120;2023-03-11T10:32:57;2.67;;;1.10;;
60726;SDS011;46577;49.004;12.120;2023-03-11T10:35:35;0.87;;;0.80;;
60726;SDS011;46577;49.004;12.120;2023-03-11T10:38:17;1.30;;;0.70;;
60726;SDS011;46577;49.004;12.120;2023-03-11T10:40:47;0.87;;;0.80;;
60726;SDS011;46577;49.004;12.120;2023-03-11T10:43:20;1.80;;;1.00;;
60726;SDS011;46577;49.004;12.120;2023-03-11T10:46:04;0.90;;;0.80;;
60726;SDS011;46577;49.004;12.120;2023-03-11T10:48:42;1.93;;;1.10;;
60726;SDS011;46577;49.004;12.120;2023-03-11T10:51:18;4.33;;;1.10;;
60726;SDS011;46577;49.004;12.120;2023-03-11T10:53:57;1.73;;;0.97;;
60726;SDS011;46577;49.004;12.120;2023-03-11T10:56:28;1.97;;;1.10;;
60726;SDS011;46577;49.004;12.120;2023-03-11T10:58:59;2.37;;;1.50;;
60726;SDS011;46577;49.004;12.120;2023-03-11T11:01:26;1.20;;;1.10;;
60726;SDS011;46577;49.004;12.120;2023-03-11T11:03:53;2.63;;;1.17;;
60726;SDS011;46577;49.004;12.120;2023-03-11T11:09:02;3.13;;;1.70;;
60726;SDS011;46577;49.004;12.120;2023-03-11T11:11:31;2.43;;;1.40;;
60726;SDS011;46577;49.004;12.120;2023-03-11T11:14:00;2.43;;;1.20;;
60726;SDS011;46577;49.004;12.120;2023-03-11T11:16:26;8.00;;;1.67;;
60726;SDS011;46577;49.004;12.120;2023-03-11T11:18:54;4.70;;;1.10;;
60726;SDS011;46577;49.004;12.120;2023-03-11T11:21:39;1.50;;;1.07;;
60726;SDS011;46577;49.004;12.120;2023-03-11T11:24:17;3.10;;;1.37;;
60726;SDS011;46577;49.004;12.120;2023-03-11T11:29:31;2.30;;;1.53;;
60726;SDS011;46577;49.004;12.120;2023-03-11T11:34:44;3.20;;;1.70;;
60726;SDS011;46577;49.004;12.120;2023-03-11T11:37:32;2.47;;;1.20;;
60726;SDS011;46577;49.004;12.120;2023-03-11T11:40:05;0.83;;;0.83;;
60726;SDS011;46577;49.004;12.120;2023-03-11T11:45:36;1.90;;;1.10;;
60726;SDS011;46577;49.004;12.120;2023-03-11T11:50:37;2.10;;;1.40;;
60726;SDS011;46577;49.004;12.120;2023-03-11T11:55:49;3.37;;;1.30;;
60726;SDS011;46577;49.004;12.120;2023-03-11T11:58:19;1.27;;;1.00;;
60726;SDS011;46577;49.004;12.120;2023-03-11T12:03:22;1.97;;;1.00;;
60726;SDS011;46577;49.004;12.120;2023-03-11T12:06:24;1.63;;;1.07;;
60726;SDS011;46577;49.004;12.120;2023-03-11T12:08:59;1.73;;;1.10;;
60726;SDS011;46577;49.004;12.120;2023-03-11T12:11:40;1.60;;;1.20;;
60726;SDS011;46577;49.004;12.120;2023-03-11T12:14:19;2.03;;;1.37;;
60726;SDS011;46577;49.004;12.120;2023-03-11T12:22:12;4.37;;;1.47;;
60726;SDS011;46577;49.004;12.120;2023-03-11T12:30:21;1.53;;;1.03;;
60726;SDS011;46577;49.004;12.120;2023-03-11T12:33:34;2.00;;;1.30;;
60726;SDS011;46577;49.004;12.120;2023-03-11T12:35:55;1.27;;;1.00;;
60726;SDS011;46577;49.004;12.120;2023-03-11T12:46:16;1.80;;;1.30;;
60726;SDS011;46577;49.004;12.120;2023-03-11T12:48:42;2.90;;;1.23;;
60726;SDS011;46577;49.004;12.120;2023-03-11T12:57:02;1.63;;;1.30;;
60726;SDS011;46577;49.004;12.120;2023-03-11T13:05:26;1.10;;;0.90;;
60726;SDS011;46577;49.004;12.120;2023-03-11T13:08:14;2.50;;;1.53;;
60726;SDS011;46577;49.004;12.120;2023-03-11T13:10:47;2.03;;;1.63;;
60726;SDS011;46577;49.004;12.120;2023-03-11T13:13:21;2.37;;;1.43;;
60726;SDS011;46577;49.004;12.120;2023-03-11T13:15:53;2.60;;;1.30;;
60726;SDS011;46577;49.004;12.120;2023-03-11T13:18:23;1.93;;;1.40;;
60726;SDS011;46577;49.004;12.120;2023-03-11T13:23:25;2.87;;;1.67;;
60726;SDS011;46577;49.004;12.120;2023-03-11T13:40:59;2.70;;;1.23;;
60726;SDS011;46577;49.004;12.120;2023-03-11T13:43:27;2.10;;;1.27;;
60726;SDS011;46577;49.004;12.120;2023-03-11T13:46:07;6.00;;;0.90;;
60726;SDS011;46577;49.004;12.120;2023-03-11T13:48:42;4.37;;;1.40;;
60726;SDS011;46577;49.004;12.120;2023-03-11T13:51:15;3.10;;;1.63;;
60726;SDS011;46577;49.004;12.120;2023-03-11T13:53:53;5.20;;;1.53;;
60726;SDS011;46577;49.004;12.120;2023-03-11T13:56:28;2.57;;;1.77;;
60726;SDS011;46577;49.004;12.120;2023-03-11T14:01:52;2.63;;;1.60;;
60726;SDS011;46577;49.004;12.120;2023-03-11T14:04:33;5.90;;;1.87;;
60726;SDS011;46577;49.004;12.120;2023-03-11T14:07:11;2.20;;;1.43;;
60726;SDS011;46577;49.004;12.120;2023-03-11T14:09:38;3.00;;;2.10;;
60726;SDS011;46577;49.004;12.120;2023-03-11T14:12:04;1.60;;;1.30;;
60726;SDS011;46577;49.004;12.120;2023-03-11T14:17:11;2.20;;;1.57;;
60726;SDS011;46577;49.004;12.120;2023-03-11T14:19:40;1.47;;;1.30;;
60726;SDS011;46577;49.004;12.120;2023-03-11T14:22:09;2.20;;;1.53;;
60726;SDS011;46577;49.004;12.120;2023-03-11T14:24:35;2.23;;;1.50;;
60726;SDS011;46577;49.004;12.120;2023-03-11T14:27:03;5.53;;;1.40;;
60726;SDS011;46577;49.004;12.120;2023-03-11T14:29:37;2.13;;;1.40;;
60726;SDS011;46577;49.004;12.120;2023-03-11T14:34:59;1.70;;;1.60;;
60726;SDS011;46577;49.004;12.120;2023-03-11T14:37:32;2.30;;;1.27;;
60726;SDS011;46577;49.004;12.120;2023-03-11T14:39:59;7.63;;;1.83;;
60726;SDS011;46577;49.004;12.120;2023-03-11T14:42:37;1.90;;;1.13;;
60726;SDS011;46577;49.004;12.120;2023-03-11T14:47:39;2.97;;;1.63;;
60726;SDS011;46577;49.004;12.120;2023-03-11T14:50:26;3.80;;;1.37;;
60726;SDS011;46577;49.004;12.120;2023-03-11T14:55:39;2.57;;;1.57;;
60726;SDS011;46577;49.004;12.120;2023-03-11T15:03:32;3.50;;;2.17;;
60726;SDS011;46577;49.004;12.120;2023-03-11T15:06:08;1.60;;;1.50;;
60726;SDS011;46577;49.004;12.120;2023-03-11T15:13:35;2.10;;;1.37;;
60726;SDS011;46577;49.004;12.120;2023-03-11T15:16:03;4.00;;;1.83;;
60726;SDS011;46577;49.004;12.120;2023-03-11T15:18:32;3.10;;;1.47;;
60726;SDS011;46577;49.004;12.120;2023-03-11T15:21:02;1.93;;;1.70;;
60726;SDS011;46577;49.004;12.120;2023-03-11T15:23:39;4.10;;;1.80;;
60726;SDS011;46577;49.004;12.120;2023-03-11T15:26:20;1.50;;;1.40;;
60726;SDS011;46577;49.004;12.120;2023-03-11T15:28:52;3.03;;;1.87;;
60726;SDS011;46577;49.004;12.120;2023-03-11T15:31:38;4.40;;;1.83;;
60726;SDS011;46577;49.004;12.120;2023-03-11T15:36:43;1.60;;;1.50;;
60726;SDS011;46577;49.004;12.120;2023-03-11T15:44:37;2.57;;;1.73;;
60726;SDS011;46577;49.004;12.120;2023-03-11T15:47:08;3.50;;;1.67;;
60726;SDS011;46577;49.004;12.120;2023-03-11T15:49:37;3.43;;;1.80;;
60726;SDS011;46577;49.004;12.120;2023-03-11T15:52:03;2.37;;;1.50;;
60726;SDS011;46577;49.004;12.120;2023-03-11T15:54:29;4.00;;;1.83;;
60726;SDS011;46577;49.004;12.120;2023-03-11T15:56:55;3.23;;;1.43;;
60726;SDS011;46577;49.004;12.120;2023-03-11T15:59:22;3.13;;;1.90;;
60726;SDS011;46577;49.004;12.120;2023-03-11T16:01:49;2.20;;;1.80;;
60726;SDS011;46577;49.004;12.120;2023-03-11T16:04:16;3.70;;;2.40;;
60726;SDS011;46577;49.004;12.120;2023-03-11T16:06:43;2.07;;;1.97;;
60726;SDS011;46577;49.004;12.120;2023-03-11T16:09:09;6.10;;;2.30;;
60726;SDS011;46577;49.004;12.120;2023-03-11T16:11:35;3.33;;;2.50;;
60726;SDS011;46577;49.004;12.120;2023-03-11T16:14:01;6.87;;;2.87;;
60726;SDS011;46577;49.004;12.120;2023-03-11T16:16:27;5.00;;;3.10;;
60726;SDS011;46577;49.004;12.120;2023-03-11T16:18:53;4.03;;;1.90;;
60726;SDS011;46577;49.004;12.120;2023-03-11T16:21:20;4.30;;;2.67;;
60726;SDS011;46577;49.004;12.120;2023-03-11T16:23:48;4.60;;;2.50;;
60726;SDS011;46577;49.004;12.120;2023-03-11T16:26:14;4.53;;;3.20;;
60726;SDS011;46577;49.004;12.120;2023-03-11T16:28:40;4.23;;;3.30;;
60726;SDS011;46577;49.004;12.120;2023-03-11T16:31:07;7.07;;;2.37;;
60726;SDS011;46577;49.004;12.120;2023-03-11T16:33:34;3.20;;;2.10;;
60726;SDS011;46577;49.004;12.120;2023-03-11T16:36:00;2.53;;;1.90;;
60726;SDS011;46577;49.004;12.120;2023-03-11T16:38:25;4.37;;;2.33;;
60726;SDS011;46577;49.004;12.120;2023-03-11T16:40:59;3.70;;;1.93;;
60726;SDS011;46577;49.004;12.120;2023-03-11T16:43:26;3.10;;;1.80;;
60726;SDS011;46577;49.004;12.120;2023-03-11T16:45:53;1.97;;;1.77;;
60726;SDS011;46577;49.004;12.120;2023-03-11T16:48:22;4.20;;;2.40;;
60726;SDS011;46577;49.004;12.120;2023-03-11T16:50:48;4.27;;;2.27;;